< < Back
Terminal Aerodrome Forecast


Current Version              Previous Versions:   1  2  3  4  5  6  7  8  9  

Terminal Aerodrome Forecast

618
FTUS42 KCAE 030908 AAA
TAFCAE
TAF AMD
KCAE 030908Z 0309/0406 VRB03KT P6SM BKN250
     FM031500 VRB05KT P6SM SCT050 BKN250=



Latest METAR

962
SAUS80 KWBC 031000
MTRCAE
METAR KCAE 030956Z 25003KT 10SM BKN150 24/21 A2994 RMK AO2 SLP134
T02390211


USA.gov is the U.S. government's official web portal to all federal, state and local government web resources and services.